XQI weather

Xiquipilli Airport
Emiliano Zapata, Tabasco, Mexico

Public forecast

Using degrees Celsius for public forecast. Weather courtesy of forecast.io.

Closest aviation weather report (METAR) to Xiquipilli Airport

Closest report is Palenque International Airport, 27.4 nm (50.7 km) SW. Retrieved 2020/02/22 18:43 UTC (1 hour ago):

MMPQ 221843Z 00000KT 5SM BKN020TCU BKN060 25/21 A3007 RMK 8/220 HZY

Closest aviation forecast (TAF) to Xiquipilli Airport

Closest forecast is Palenque International Airport, 27.4 nm (50.7 km) SW. Retrieved 2020/02/22 18:32 UTC (1 hour ago):

TAF MMPQ 221632Z 2218/2318 02010KT 4SM HZ OVC009 FM222000 04008KT 5SM HZ BKN015 BKN080 FM230600 06005KT 5SM HZ SCT015 BKN080 TEMPO 2311/2315 4SM HZ BKN012 FM231700 09012KT 5SM HZ BKN020